Time,TemperatureF,DewpointF,PressureIn,WindDirection,WindDirectionDegrees,WindSpeedMPH,WindSpeedGustMPH,Humidity,HourlyPrecipIn,Conditions,Clouds,dailyrainin,SolarRadiationWatts/m^2,SoftwareType,DateUTC
2013-10-01 00:00:00,55.0,52.7,29.99,ENE,75,0.0,0.0,92,0.00,,,0.00,0.00,VWS V14.01,2013-10-01 04:00:00,
2013-10-01 00:01:00,55.0,52.7,29.99,ENE,75,0.0,0.0,92,0.00,,,0.00,0.00,VWS V14.01,2013-10-01 04:01:00,
2013-10-01 00:06:00,54.8,52.5,29.99,ENE,75,0.0,0.0,92,0.00,,,0.00,0.00,VWS V14.01,2013-10-01 04:06:00,
2013-10-01 00:11:00,54.8,52.5,29.99,ENE,75,0.0,0.0,92,0.00,,,0.00,0.00,VWS V14.01,2013-10-01 04:11:00,
2013-10-01 00:16:00,54.7,52.4,29.99,ENE,75,0.0,0.0,92,0.00,,,0.00,0.00,VWS V14.01,2013-10-01 04:16:00,
2013-10-01 00:21:00,54.5,52.2,29.99,ENE,75,0.0,0.0,92,0.00,,,0.00,0.00,VWS V14.01,2013-10-01 04:21:00,
2013-10-01 00:26:00,54.5,52.2,29.99,ENE,75,0.0,0.0,92,0.00,,,0.00,0.00,VWS V14.01,2013-10-01 04:26:00,
2013-10-01 00:31:00,54.4,52.1,29.99,ENE,75,0.0,0.0,92,0.00,,,0.00,0.00,VWS V14.01,2013-10-01 04:31:00,
2013-10-01 00:36:00,54.4,52.1,29.99,ENE,75,0.0,0.0,92,0.00,,,0.00,0.00,VWS V14.01,2013-10-01 04:36:00,
2013-10-01 00:41:00,54.2,51.9,29.99,ENE,75,0.0,0.0,92,0.00,,,0.00,0.00,VWS V14.01,2013-10-01 04:41:00,
2013-10-01 00:46:00,54.2,51.9,29.99,ENE,75,0.0,0.0,92,0.00,,,0.00,0.00,VWS V14.01,2013-10-01 04:46:00,
2013-10-01 00:51:00,54.1,52.1,29.99,ENE,75,0.0,0.0,93,0.00,,,0.00,0.00,VWS V14.01,2013-10-01 04:51:00,
2013-10-01 00:56:00,54.1,52.1,29.99,ENE,75,0.0,0.0,93,0.00,,,0.00,0.00,VWS V14.01,2013-10-01 04:56:00,
2013-10-01 01:01:00,54.1,52.1,29.99,ENE,75,0.0,0.0,93,0.00,,,0.00,0.00,VWS V14.01,2013-10-01 05:01:00,
2013-10-01 01:06:00,54.1,52.1,29.98,ENE,75,0.0,0.0,93,0.00,,,0.00,0.00,VWS V14.01,2013-10-01 05:06:00,
2013-10-01 01:11:00,53.9,51.9,29.98,ENE,75,0.0,0.0,93,0.00,,,0.00,0.00,VWS V14.01,2013-10-01 05:11:00,
2013-10-01 01:16:00,53.9,51.9,29.98,ENE,75,0.0,0.0,93,0.00,,,0.00,0.00,VWS V14.01,2013-10-01 05:16:00,
2013-10-01 01:21:00,53.8,51.8,29.98,ENE,75,0.0,0.0,93,0.00,,,0.00,0.00,VWS V14.01,2013-10-01 05:21:00,
2013-10-01 01:26:00,53.8,51.8,29.98,ENE,75,0.0,0.0,93,0.00,,,0.00,0.00,VWS V14.01,2013-10-01 05:26:00,
2013-10-01 01:31:00,53.8,52.1,29.98,ENE,75,0.0,0.0,94,0.00,,,0.00,0.00,VWS V14.01,2013-10-01 05:31:00,
2013-10-01 01:36:00,53.9,52.2,29.98,ENE,75,0.0,0.0,94,0.00,,,0.00,0.00,VWS V14.01,2013-10-01 05:36:00,
2013-10-01 01:41:00,53.8,52.1,29.98,ENE,75,0.0,0.0,94,0.00,,,0.00,0.00,VWS V14.01,2013-10-01 05:41:00,
2013-10-01 01:46:00,53.6,51.9,29.98,ENE,75,0.0,0.0,94,0.00,,,0.00,0.00,VWS V14.01,2013-10-01 05:46:00,
2013-10-01 01:51:00,53.5,51.8,29.98,ENE,75,0.0,0.0,94,0.00,,,0.00,0.00,VWS V14.01,2013-10-01 05:51:00,
2013-10-01 01:56:00,53.5,51.8,29.98,ENE,75,0.0,0.0,94,0.00,,,0.00,0.00,VWS V14.01,2013-10-01 05:56:00,
2013-10-01 02:01:00,53.3,51.6,29.98,ENE,75,0.0,0.0,94,0.00,,,0.00,0.00,VWS V14.01,2013-10-01 06:01:00,
2013-10-01 02:06:00,53.2,51.5,29.98,ENE,75,0.0,0.0,94,0.00,,,0.00,0.00,VWS V14.01,2013-10-01 06:06:00,
2013-10-01 02:11:00,53.2,51.5,29.98,ENE,75,0.0,0.0,94,0.00,,,0.00,0.00,VWS V14.01,2013-10-01 06:11:00,
2013-10-01 02:16:00,53.3,51.6,29.98,ENE,75,0.0,0.0,94,0.00,,,0.00,0.00,VWS V14.01,2013-10-01 06:16:00,
2013-10-01 02:21:00,53.3,51.6,29.99,ENE,75,0.0,0.0,94,0.00,,,0.00,0.00,VWS V14.01,2013-10-01 06:21:00,
2013-10-01 02:26:00,53.2,51.5,29.99,ENE,75,0.0,0.0,94,0.00,,,0.00,0.00,VWS V14.01,2013-10-01 06:26:00,
2013-10-01 02:31:00,53.1,51.4,29.99,ENE,75,0.0,0.0,94,0.00,,,0.00,0.00,VWS V14.01,2013-10-01 06:31:00,
2013-10-01 02:36:00,53.1,51.4,29.98,ENE,75,0.0,0.0,94,0.00,,,0.00,0.00,VWS V14.01,2013-10-01 06:36:00,
2013-10-01 02:41:00,52.9,51.2,29.98,ENE,75,0.0,0.0,94,0.00,,,0.00,0.00,VWS V14.01,2013-10-01 06:41:00,
2013-10-01 02:46:00,52.8,51.1,29.98,ENE,75,0.0,0.0,94,0.00,,,0.00,0.00,VWS V14.01,2013-10-01 06:46:00,
2013-10-01 02:51:00,52.8,51.1,29.97,ENE,75,0.0,0.0,94,0.00,,,0.00,0.00,VWS V14.01,2013-10-01 06:51:00,
2013-10-01 02:56:00,52.6,50.9,29.97,ENE,75,0.0,0.0,94,0.00,,,0.00,0.00,VWS V14.01,2013-10-01 06:56:00,
2013-10-01 03:01:00,52.5,50.8,29.97,ENE,75,0.0,0.0,94,0.00,,,0.00,0.00,VWS V14.01,2013-10-01 07:01:00,
2013-10-01 03:06:00,52.5,50.8,29.97,ENE,75,0.0,0.0,94,0.00,,,0.00,0.00,VWS V14.01,2013-10-01 07:06:00,
2013-10-01 03:11:00,52.3,50.6,29.97,ENE,75,0.0,0.0,94,0.00,,,0.00,0.00,VWS V14.01,2013-10-01 07:11:00,
2013-10-01 03:16:00,52.3,50.6,29.97,ENE,75,0.0,0.0,94,0.00,,,0.00,0.00,VWS V14.01,2013-10-01 07:16:00,
2013-10-01 03:21:00,52.2,50.5,29.98,ENE,75,0.0,0.0,94,0.00,,,0.00,0.00,VWS V14.01,2013-10-01 07:21:00,
2013-10-01 03:26:00,52.2,50.5,29.98,ENE,75,0.0,0.0,94,0.00,,,0.00,0.00,VWS V14.01,2013-10-01 07:26:00,
2013-10-01 03:31:00,52.0,50.3,29.98,ENE,75,0.0,0.0,94,0.00,,,0.00,0.00,VWS V14.01,2013-10-01 07:31:00,
2013-10-01 03:36:00,52.0,50.3,29.98,ENE,75,0.0,0.0,94,0.00,,,0.00,0.00,VWS V14.01,2013-10-01 07:36:00,
2013-10-01 03:41:00,52.0,50.6,29.98,ENE,75,0.0,0.0,95,0.00,,,0.00,0.00,VWS V14.01,2013-10-01 07:41:00,
2013-10-01 03:46:00,52.2,50.8,29.98,ENE,75,0.0,0.0,95,0.00,,,0.00,0.00,VWS V14.01,2013-10-01 07:46:00,
2013-10-01 03:51:00,52.2,50.8,29.98,ENE,75,0.0,0.0,95,0.00,,,0.00,0.00,VWS V14.01,2013-10-01 07:51:00,
2013-10-01 03:56:00,52.2,50.8,29.98,ENE,75,0.0,0.0,95,0.00,,,0.00,0.00,VWS V14.01,2013-10-01 07:56:00,
2013-10-01 04:01:00,52.0,50.6,29.98,ENE,75,0.0,0.0,95,0.00,,,0.00,0.00,VWS V14.01,2013-10-01 08:01:00,
2013-10-01 04:06:00,52.0,50.6,29.98,ENE,75,0.0,0.0,95,0.00,,,0.00,0.00,VWS V14.01,2013-10-01 08:06:00,
2013-10-01 04:11:00,51.9,50.5,29.98,ENE,75,0.0,0.0,95,0.00,,,0.00,0.00,VWS V14.01,2013-10-01 08:11:00,
2013-10-01 04:16:00,51.7,50.3,29.98,ENE,75,0.0,0.0,95,0.00,,,0.00,0.00,VWS V14.01,2013-10-01 08:16:00,
2013-10-01 04:21:00,51.7,50.3,29.98,ENE,75,0.0,0.0,95,0.00,,,0.00,0.00,VWS V14.01,2013-10-01 08:21:00,
2013-10-01 04:26:00,51.6,50.2,29.98,ENE,75,0.0,0.0,95,0.00,,,0.00,0.00,VWS V14.01,2013-10-01 08:26:00,
2013-10-01 04:32:00,51.6,50.2,29.98,ENE,75,0.0,0.0,95,0.00,,,0.00,0.00,VWS V14.01,2013-10-01 08:32:00,
2013-10-01 04:37:00,51.4,50.0,29.98,ENE,75,0.0,0.0,95,0.00,,,0.00,0.00,VWS V14.01,2013-10-01 08:37:00,
2013-10-01 04:42:00,51.3,49.9,29.98,ENE,75,0.0,0.0,95,0.00,,,0.00,0.00,VWS V14.01,2013-10-01 08:42:00,
2013-10-01 04:47:00,51.3,49.9,29.98,ENE,75,0.0,0.0,95,0.00,,,0.00,0.00,VWS V14.01,2013-10-01 08:47:00,
2013-10-01 04:52:00,51.3,49.9,29.98,ENE,75,0.0,0.0,95,0.00,,,0.00,0.00,VWS V14.01,2013-10-01 08:52:00,
2013-10-01 04:57:00,51.1,49.7,29.98,ENE,75,0.0,0.0,95,0.00,,,0.00,0.00,VWS V14.01,2013-10-01 08:57:00,
2013-10-01 05:02:00,51.1,49.7,29.99,ENE,75,0.0,0.0,95,0.00,,,0.00,0.00,VWS V14.01,2013-10-01 09:02:00,
2013-10-01 05:07:00,51.1,49.7,29.99,ENE,75,0.0,0.0,95,0.00,,,0.00,0.00,VWS V14.01,2013-10-01 09:07:00,
2013-10-01 05:12:00,51.1,49.7,29.99,ENE,75,0.0,0.0,95,0.00,,,0.00,0.00,VWS V14.01,2013-10-01 09:12:00,
2013-10-01 05:17:00,51.0,49.6,29.99,ENE,75,0.0,0.0,95,0.00,,,0.00,0.00,VWS V14.01,2013-10-01 09:17:00,
2013-10-01 05:22:00,51.0,49.6,29.99,ENE,75,0.0,0.0,95,0.00,,,0.00,0.00,VWS V14.01,2013-10-01 09:22:00,
2013-10-01 05:27:00,50.8,49.4,29.99,ENE,75,0.0,0.0,95,0.00,,,0.00,0.00,VWS V14.01,2013-10-01 09:27:00,
2013-10-01 05:32:00,51.0,49.6,29.99,ENE,75,0.0,0.0,95,0.00,,,0.00,0.00,VWS V14.01,2013-10-01 09:32:00,
2013-10-01 05:37:00,51.3,50.2,29.99,ENE,75,0.0,0.0,96,0.00,,,0.00,0.00,VWS V14.01,2013-10-01 09:37:00,
2013-10-01 05:42:00,51.4,50.0,29.99,ENE,75,0.0,0.0,95,0.00,,,0.00,0.00,VWS V14.01,2013-10-01 09:42:00,
2013-10-01 05:47:00,51.4,50.0,29.99,ENE,75,0.0,0.0,95,0.00,,,0.00,0.00,VWS V14.01,2013-10-01 09:47:00,
2013-10-01 05:52:00,51.3,49.9,29.99,ENE,75,0.0,0.0,95,0.00,,,0.00,0.00,VWS V14.01,2013-10-01 09:52:00,
2013-10-01 05:57:00,51.3,49.9,29.99,ENE,75,0.0,0.0,95,0.00,,,0.00,0.00,VWS V14.01,2013-10-01 09:57:00,
2013-10-01 06:02:00,51.1,49.7,29.99,ENE,75,0.0,0.0,95,0.00,,,0.00,0.00,VWS V14.01,2013-10-01 10:02:00,
2013-10-01 06:07:00,51.1,49.7,29.99,ENE,75,0.0,0.0,95,0.00,,,0.00,0.00,VWS V14.01,2013-10-01 10:07:00,
2013-10-01 06:12:00,51.0,49.6,29.99,ENE,75,0.0,0.0,95,0.00,,,0.00,0.00,VWS V14.01,2013-10-01 10:12:00,
2013-10-01 06:17:00,51.0,49.6,30.00,ENE,75,0.0,0.0,95,0.00,,,0.00,0.00,VWS V14.01,2013-10-01 10:17:00,
2013-10-01 06:22:00,50.8,49.4,30.00,ENE,75,0.0,0.0,95,0.00,,,0.00,0.00,VWS V14.01,2013-10-01 10:22:00,
2013-10-01 06:27:00,50.8,49.4,30.00,ENE,75,0.0,0.0,95,0.00,,,0.00,0.00,VWS V14.01,2013-10-01 10:27:00,
2013-10-01 06:32:00,50.7,49.3,30.01,ENE,75,0.0,0.0,95,0.00,,,0.00,0.00,VWS V14.01,2013-10-01 10:32:00,
2013-10-01 06:37:00,50.5,49.1,30.01,ENE,75,0.0,0.0,95,0.00,,,0.00,0.00,VWS V14.01,2013-10-01 10:37:00,
2013-10-01 06:42:00,50.5,49.1,30.01,ENE,75,0.0,0.0,95,0.00,,,0.00,0.00,VWS V14.01,2013-10-01 10:42:00,
2013-10-01 06:47:00,50.4,49.0,30.01,ENE,75,0.0,0.0,95,0.00,,,0.00,0.00,VWS V14.01,2013-10-01 10:47:00,
2013-10-01 06:52:00,50.5,49.1,30.01,ENE,75,0.0,0.0,95,0.00,,,0.00,0.00,VWS V14.01,2013-10-01 10:52:00,
2013-10-01 06:57:00,50.5,49.1,30.01,ENE,75,0.0,0.0,95,0.00,,,0.00,0.00,VWS V14.01,2013-10-01 10:57:00,
2013-10-01 07:02:00,50.5,49.1,30.01,ENE,75,0.0,0.0,95,0.00,,,0.00,0.00,VWS V14.01,2013-10-01 11:02:00,
2013-10-01 07:07:00,50.5,49.4,30.01,ENE,75,0.0,0.0,96,0.00,,,0.00,0.00,VWS V14.01,2013-10-01 11:07:00,
2013-10-01 07:13:00,50.4,49.3,30.01,ENE,75,0.0,0.0,96,0.00,,,0.00,5.00,VWS V14.01,2013-10-01 11:13:00,
2013-10-01 07:18:00,50.4,49.3,30.02,ENE,75,0.0,0.0,96,0.00,,,0.00,7.00,VWS V14.01,2013-10-01 11:18:00,
2013-10-01 07:23:00,50.4,49.3,30.02,ENE,75,0.0,0.0,96,0.00,,,0.00,9.00,VWS V14.01,2013-10-01 11:23:00,
2013-10-01 07:28:00,50.4,49.3,30.02,ENE,75,0.0,0.0,96,0.00,,,0.00,11.00,VWS V14.01,2013-10-01 11:28:00,
2013-10-01 07:33:00,50.4,49.3,30.03,ENE,75,0.0,0.0,96,0.00,,,0.00,12.00,VWS V14.01,2013-10-01 11:33:00,
2013-10-01 07:38:00,50.4,49.3,30.03,ENE,75,0.0,0.0,96,0.00,,,0.00,14.00,VWS V14.01,2013-10-01 11:38:00,
2013-10-01 07:43:00,50.4,49.3,30.03,ENE,75,0.0,0.0,96,0.00,,,0.00,18.00,VWS V14.01,2013-10-01 11:43:00,
2013-10-01 07:48:00,50.5,49.4,30.03,ENE,75,0.0,0.0,96,0.00,,,0.00,19.00,VWS V14.01,2013-10-01 11:48:00,
2013-10-01 07:53:00,50.7,49.6,30.03,ENE,75,0.0,0.0,96,0.00,,,0.00,21.00,VWS V14.01,2013-10-01 11:53:00,
2013-10-01 07:58:00,50.8,49.7,30.03,ENE,75,0.0,0.0,96,0.01,,,0.01,23.00,VWS V14.01,2013-10-01 11:58:00,
2013-10-01 08:03:00,51.0,49.9,30.04,ENE,75,0.0,0.0,96,0.01,,,0.01,25.00,VWS V14.01,2013-10-01 12:03:00,
2013-10-01 08:08:00,51.1,50.0,30.04,ENE,75,0.0,0.0,96,0.01,,,0.01,26.00,VWS V14.01,2013-10-01 12:08:00,
2013-10-01 08:13:00,51.3,50.2,30.04,ENE,75,0.0,0.0,96,0.01,,,0.01,28.00,VWS V14.01,2013-10-01 12:13:00,
2013-10-01 08:18:00,51.6,50.5,30.04,ENE,75,0.0,0.0,96,0.01,,,0.01,32.00,VWS V14.01,2013-10-01 12:18:00,
2013-10-01 08:23:00,51.9,50.8,30.04,ENE,75,0.0,0.0,96,0.01,,,0.01,35.00,VWS V14.01,2013-10-01 12:23:00,
2013-10-01 08:28:00,52.0,50.9,30.04,ENE,75,0.0,0.0,96,0.01,,,0.01,37.00,VWS V14.01,2013-10-01 12:28:00,
2013-10-01 08:33:00,52.3,51.2,30.04,ENE,75,0.0,0.0,96,0.01,,,0.01,44.00,VWS V14.01,2013-10-01 12:33:00,
2013-10-01 08:38:00,52.6,51.5,30.04,ENE,75,0.0,0.0,96,0.01,,,0.01,56.00,VWS V14.01,2013-10-01 12:38:00,
2013-10-01 08:43:00,52.8,51.7,30.04,ENE,75,0.0,0.0,96,0.01,,,0.01,65.00,VWS V14.01,2013-10-01 12:43:00,
2013-10-01 08:48:00,53.1,52.0,30.04,ENE,75,0.0,0.0,96,0.01,,,0.01,93.00,VWS V14.01,2013-10-01 12:48:00,
2013-10-01 08:53:00,53.5,52.4,30.04,ENE,75,0.0,0.0,96,0.01,,,0.01,139.00,VWS V14.01,2013-10-01 12:53:00,
2013-10-01 08:58:00,53.9,52.8,30.04,ENE,75,0.0,0.0,96,0.00,,,0.01,141.00,VWS V14.01,2013-10-01 12:58:00,
2013-10-01 09:03:00,54.5,53.4,30.04,ENE,75,0.0,0.0,96,0.00,,,0.01,128.00,VWS V14.01,2013-10-01 13:03:00,
2013-10-01 09:08:00,55.1,54.0,30.04,ENE,75,0.0,0.0,96,0.00,,,0.01,125.00,VWS V14.01,2013-10-01 13:08:00,
2013-10-01 09:13:00,55.7,54.6,30.04,ENE,75,0.0,0.0,96,0.00,,,0.01,139.00,VWS V14.01,2013-10-01 13:13:00,
2013-10-01 09:18:00,56.0,54.9,30.04,ENE,75,0.0,0.0,96,0.00,,,0.01,158.00,VWS V14.01,2013-10-01 13:18:00,
2013-10-01 09:23:00,56.5,55.4,30.04,ENE,75,0.0,0.0,96,0.00,,,0.01,158.00,VWS V14.01,2013-10-01 13:23:00,
2013-10-01 09:28:00,56.9,55.8,30.04,ENE,75,0.0,0.0,96,0.00,,,0.01,167.00,VWS V14.01,2013-10-01 13:28:00,
2013-10-01 09:33:00,57.3,56.2,30.04,ENE,75,0.0,0.0,96,0.00,,,0.01,178.00,VWS V14.01,2013-10-01 13:33:00,
2013-10-01 09:38:00,57.5,56.4,30.04,ENE,75,0.0,0.0,96,0.00,,,0.01,139.00,VWS V14.01,2013-10-01 13:38:00,
2013-10-01 09:43:00,57.8,56.7,30.04,ENE,75,0.0,0.0,96,0.00,,,0.01,209.00,VWS V14.01,2013-10-01 13:43:00,
2013-10-01 09:48:00,58.3,57.2,30.04,ENE,75,0.0,1.0,96,0.00,,,0.01,406.00,VWS V14.01,2013-10-01 13:48:00,
2013-10-01 09:53:00,59.0,57.9,30.04,ENE,75,0.0,0.0,96,0.00,,,0.01,418.00,VWS V14.01,2013-10-01 13:53:00,
2013-10-01 09:58:00,60.1,59.2,30.04,ENE,75,0.0,0.0,97,0.00,,,0.01,436.00,VWS V14.01,2013-10-01 13:58:00,
2013-10-01 10:03:00,60.9,59.8,30.04,ENE,75,0.0,0.0,96,0.00,,,0.01,454.00,VWS V14.01,2013-10-01 14:03:00,
2013-10-01 10:08:00,61.8,60.7,30.04,ENE,75,0.0,0.0,96,0.00,,,0.01,485.00,VWS V14.01,2013-10-01 14:08:00,
2013-10-01 10:13:00,62.9,61.8,30.04,ENE,75,0.0,1.0,96,0.00,,,0.01,508.00,VWS V14.01,2013-10-01 14:13:00,
2013-10-01 10:18:00,64.0,62.8,30.04,ENE,75,0.0,0.0,96,0.00,,,0.01,520.00,VWS V14.01,2013-10-01 14:18:00,
2013-10-01 10:23:00,64.8,63.0,30.04,ENE,75,0.0,0.0,94,0.00,,,0.01,534.00,VWS V14.01,2013-10-01 14:23:00,
2013-10-01 10:28:00,65.8,63.4,30.04,ENE,75,0.0,2.0,92,0.00,,,0.01,554.00,VWS V14.01,2013-10-01 14:28:00,
2013-10-01 10:33:00,66.9,63.2,30.04,ENE,75,0.0,0.0,88,0.00,,,0.01,570.00,VWS V14.01,2013-10-01 14:33:00,
2013-10-01 10:38:00,67.9,62.9,30.04,ENE,75,0.0,3.0,84,0.00,,,0.01,582.00,VWS V14.01,2013-10-01 14:38:00,
2013-10-01 10:43:00,68.8,61.7,30.04,ENE,75,0.0,0.0,78,0.00,,,0.01,594.00,VWS V14.01,2013-10-01 14:43:00,
2013-10-01 10:48:00,69.4,60.8,30.04,ENE,75,0.0,0.0,74,0.00,,,0.01,610.00,VWS V14.01,2013-10-01 14:48:00,
2013-10-01 10:53:00,70.4,61.3,30.04,ESE,109,0.0,3.0,73,0.00,,,0.01,619.00,VWS V14.01,2013-10-01 14:53:00,
2013-10-01 10:58:00,71.3,61.4,30.04,ESE,109,0.0,1.0,71,0.00,,,0.01,631.00,VWS V14.01,2013-10-01 14:58:00,
2013-10-01 11:03:00,72.3,61.2,30.03,ESE,110,0.0,0.0,68,0.00,,,0.01,643.00,VWS V14.01,2013-10-01 15:03:00,
2013-10-01 11:08:00,73.3,61.3,30.03,ESE,110,0.0,0.0,66,0.00,,,0.01,654.00,VWS V14.01,2013-10-01 15:08:00,
2013-10-01 11:13:00,74.4,61.4,30.03,ESE,110,0.0,0.0,64,0.00,,,0.01,664.00,VWS V14.01,2013-10-01 15:13:00,
2013-10-01 11:18:00,75.1,60.8,30.02,ESE,110,0.0,0.0,61,0.00,,,0.01,675.00,VWS V14.01,2013-10-01 15:18:00,
2013-10-01 11:23:00,76.0,60.2,30.02,WNW,283,0.0,0.0,58,0.00,,,0.01,684.00,VWS V14.01,2013-10-01 15:23:00,
2013-10-01 11:28:00,76.7,58.8,30.02,WNW,297,3.0,4.0,54,0.00,,,0.01,696.00,VWS V14.01,2013-10-01 15:28:00,
2013-10-01 11:33:00,77.2,59.3,30.02,NW,326,0.0,0.0,54,0.00,,,0.01,703.00,VWS V14.01,2013-10-01 15:33:00,
2013-10-01 11:38:00,77.7,58.7,30.02,WSW,253,0.0,6.0,52,0.00,,,0.01,712.00,VWS V14.01,2013-10-01 15:38:00,
2013-10-01 11:43:00,78.1,59.1,30.02,West,264,0.0,5.0,52,0.00,,,0.01,719.00,VWS V14.01,2013-10-01 15:43:00,
2013-10-01 11:48:00,78.5,58.9,30.02,NNW,343,0.0,0.0,51,0.00,,,0.01,724.00,VWS V14.01,2013-10-01 15:48:00,
2013-10-01 11:53:00,79.0,59.3,30.02,WNW,301,0.0,4.0,51,0.00,,,0.01,731.00,VWS V14.01,2013-10-01 15:53:00,
2013-10-01 11:58:00,79.4,59.7,30.02,North,0,0.0,4.0,51,0.00,,,0.01,742.00,VWS V14.01,2013-10-01 15:58:00,
2013-10-01 12:04:00,79.8,59.5,30.01,West,278,4.0,5.0,50,0.00,,,0.01,752.00,VWS V14.01,2013-10-01 16:04:00,
2013-10-01 12:09:00,79.9,59.0,30.01,NW,309,0.0,0.0,49,0.00,,,0.01,758.00,VWS V14.01,2013-10-01 16:09:00,
2013-10-01 12:14:00,80.1,59.2,30.01,West,266,11.0,11.0,49,0.00,,,0.01,761.00,VWS V14.01,2013-10-01 16:14:00,
2013-10-01 12:19:00,79.9,57.9,30.01,WNW,285,0.0,4.0,47,0.00,,,0.01,768.00,VWS V14.01,2013-10-01 16:19:00,
2013-10-01 12:24:00,79.8,57.8,30.01,NNW,333,1.0,5.0,47,0.00,,,0.01,763.00,VWS V14.01,2013-10-01 16:24:00,
2013-10-01 12:29:00,80.1,58.7,30.01,North,351,0.0,3.0,48,0.00,,,0.01,772.00,VWS V14.01,2013-10-01 16:29:00,
2013-10-01 12:31:00,80.1,58.7,30.01,WNW,290,6.0,6.0,48,0.00,,,0.01,772.00,VWS V14.01,2013-10-01 16:31:00,
2013-10-01 12:36:00,80.1,58.1,30.00,WNW,297,6.0,6.0,47,0.00,,,0.01,777.00,VWS V14.01,2013-10-01 16:36:00,
2013-10-01 12:41:00,80.1,58.7,30.00,West,268,5.0,5.0,48,0.00,,,0.01,775.00,VWS V14.01,2013-10-01 16:41:00,
2013-10-01 12:46:00,80.5,58.4,30.00,NNW,338,0.0,0.0,47,0.00,,,0.01,779.00,VWS V14.01,2013-10-01 16:46:00,
2013-10-01 12:51:00,80.9,58.8,30.00,WNW,286,2.0,4.0,47,0.00,,,0.01,788.00,VWS V14.01,2013-10-01 16:51:00,
2013-10-01 12:56:00,81.2,60.2,30.00,NNW,334,6.0,6.0,49,0.00,,,0.01,795.00,VWS V14.01,2013-10-01 16:56:00,
2013-10-01 13:01:00,81.6,58.2,30.00,NNW,346,0.0,1.0,45,0.00,,,0.01,789.00,VWS V14.01,2013-10-01 17:01:00,
2013-10-01 13:06:00,81.8,58.4,29.99,North,11,0.0,0.0,45,0.00,,,0.01,793.00,VWS V14.01,2013-10-01 17:06:00,
2013-10-01 13:11:00,82.2,58.8,29.99,North,11,0.0,0.0,45,0.00,,,0.01,789.00,VWS V14.01,2013-10-01 17:11:00,
2013-10-01 13:16:00,82.6,57.9,29.99,North,0,0.0,0.0,43,0.00,,,0.01,793.00,VWS V14.01,2013-10-01 17:16:00,
2013-10-01 13:21:00,82.8,57.4,29.99,West,278,0.0,4.0,42,0.00,,,0.01,791.00,VWS V14.01,2013-10-01 17:21:00,
2013-10-01 13:26:00,82.8,58.0,29.99,WSW,253,4.0,4.0,43,0.00,,,0.01,796.00,VWS V14.01,2013-10-01 17:26:00,
2013-10-01 13:31:00,82.4,57.0,29.99,SSW,206,0.0,5.0,42,0.00,,,0.01,788.00,VWS V14.01,2013-10-01 17:31:00,
2013-10-01 13:36:00,82.4,57.0,29.98,NNE,32,0.0,0.0,42,0.00,,,0.01,766.00,VWS V14.01,2013-10-01 17:36:00,
2013-10-01 13:41:00,82.6,57.9,29.98,NW,319,0.0,1.0,43,0.00,,,0.01,791.00,VWS V14.01,2013-10-01 17:41:00,
2013-10-01 13:46:00,83.0,56.9,29.98,NW,315,0.0,0.0,41,0.00,,,0.01,788.00,VWS V14.01,2013-10-01 17:46:00,
2013-10-01 13:51:00,83.4,57.3,29.97,NW,315,0.0,1.0,41,0.00,,,0.01,795.00,VWS V14.01,2013-10-01 17:51:00,
2013-10-01 13:56:00,83.6,57.4,29.97,West,280,0.0,3.0,41,0.00,,,0.01,812.00,VWS V14.01,2013-10-01 17:56:00,
2013-10-01 14:01:00,83.8,56.9,29.97,NNW,334,4.0,4.0,40,0.00,,,0.01,134.00,VWS V14.01,2013-10-01 18:01:00,
2013-10-01 14:06:00,83.4,56.6,29.97,NW,309,0.0,0.0,40,0.00,,,0.01,779.00,VWS V14.01,2013-10-01 18:06:00,
2013-10-01 14:11:00,83.4,55.9,29.97,NNW,332,0.0,0.0,39,0.00,,,0.01,773.00,VWS V14.01,2013-10-01 18:11:00,
2013-10-01 14:16:00,83.8,57.6,29.96,NNW,327,1.0,5.0,41,0.00,,,0.01,751.00,VWS V14.01,2013-10-01 18:16:00,
2013-10-01 14:22:00,83.8,57.6,29.96,West,262,3.0,4.0,41,0.00,,,0.01,779.00,VWS V14.01,2013-10-01 18:22:00,
2013-10-01 14:27:00,83.8,56.9,29.96,WNW,282,0.0,0.0,40,0.00,,,0.01,761.00,VWS V14.01,2013-10-01 18:27:00,
2013-10-01 14:32:00,83.8,58.3,29.96,WNW,295,0.0,3.0,42,0.00,,,0.01,745.00,VWS V14.01,2013-10-01 18:32:00,
2013-10-01 14:37:00,84.0,57.1,29.96,NE,41,0.0,0.0,40,0.00,,,0.01,759.00,VWS V14.01,2013-10-01 18:37:00,
2013-10-01 14:42:00,84.3,56.7,29.96,NE,34,0.0,0.0,39,0.00,,,0.01,763.00,VWS V14.01,2013-10-01 18:42:00,
2013-10-01 14:46:00,84.7,57.0,29.96,WNW,294,0.0,0.0,39,0.00,,,0.01,744.00,VWS V14.01,2013-10-01 18:46:00,
2013-10-01 14:51:00,84.9,56.5,29.96,WNW,293,0.0,0.0,38,0.00,,,0.01,733.00,VWS V14.01,2013-10-01 18:51:00,
2013-10-01 14:56:00,85.1,56.7,29.96,NW,311,0.0,0.0,38,0.00,,,0.01,721.00,VWS V14.01,2013-10-01 18:56:00,
2013-10-01 15:02:00,85.3,57.6,29.95,North,352,0.0,1.0,39,0.00,,,0.01,710.00,VWS V14.01,2013-10-01 19:02:00,
2013-10-01 15:07:00,85.5,57.0,29.95,West,273,0.0,0.0,38,0.00,,,0.01,715.00,VWS V14.01,2013-10-01 19:07:00,
2013-10-01 15:12:00,85.5,56.3,29.95,WSW,243,0.0,0.0,37,0.00,,,0.01,684.00,VWS V14.01,2013-10-01 19:12:00,
2013-10-01 15:17:00,85.9,56.6,29.95,NNW,338,0.0,0.0,37,0.00,,,0.01,691.00,VWS V14.01,2013-10-01 19:17:00,
2013-10-01 15:22:00,85.9,58.1,29.95,North,356,0.0,0.0,39,0.00,,,0.01,677.00,VWS V14.01,2013-10-01 19:22:00,
2013-10-01 15:27:00,85.9,57.4,29.95,North,0,1.0,1.0,38,0.00,,,0.01,663.00,VWS V14.01,2013-10-01 19:27:00,
2013-10-01 15:32:00,85.7,57.2,29.94,North,3,6.0,6.0,38,0.00,,,0.01,647.00,VWS V14.01,2013-10-01 19:32:00,
2013-10-01 15:37:00,85.3,57.6,29.94,North,358,0.0,0.0,39,0.00,,,0.01,650.00,VWS V14.01,2013-10-01 19:37:00,
2013-10-01 15:42:00,85.3,57.6,29.94,NNW,345,0.0,1.0,39,0.00,,,0.01,621.00,VWS V14.01,2013-10-01 19:42:00,
2013-10-01 15:47:00,85.3,56.1,29.94,NNW,341,0.0,1.0,37,0.00,,,0.01,606.00,VWS V14.01,2013-10-01 19:47:00,
2013-10-01 15:52:00,85.5,56.3,29.94,NNW,348,0.0,0.0,37,0.00,,,0.01,596.00,VWS V14.01,2013-10-01 19:52:00,
2013-10-01 15:57:00,85.7,57.2,29.94,NNW,348,0.0,0.0,38,0.00,,,0.01,146.00,VWS V14.01,2013-10-01 19:57:00,
2013-10-01 16:02:00,85.3,56.8,29.94,North,352,0.0,0.0,38,0.00,,,0.01,561.00,VWS V14.01,2013-10-01 20:02:00,
2013-10-01 16:07:00,85.5,57.7,29.94,North,352,0.0,0.0,39,0.00,,,0.01,547.00,VWS V14.01,2013-10-01 20:07:00,
2013-10-01 16:12:00,85.7,58.6,29.94,WNW,285,0.0,1.0,40,0.00,,,0.01,545.00,VWS V14.01,2013-10-01 20:12:00,
2013-10-01 16:17:00,86.1,55.3,29.93,SW,229,0.0,0.0,35,0.00,,,0.01,515.00,VWS V14.01,2013-10-01 20:17:00,
2013-10-01 16:22:00,85.7,55.7,29.93,West,270,6.0,6.0,36,0.00,,,0.01,492.00,VWS V14.01,2013-10-01 20:22:00,
2013-10-01 16:27:00,85.7,56.5,29.93,NNW,342,2.0,4.0,37,0.00,,,0.01,476.00,VWS V14.01,2013-10-01 20:27:00,
2013-10-01 16:32:00,85.3,56.1,29.93,West,271,0.0,0.0,37,0.00,,,0.01,462.00,VWS V14.01,2013-10-01 20:32:00,
2013-10-01 16:37:00,85.1,55.9,29.93,West,268,0.0,1.0,37,0.00,,,0.01,446.00,VWS V14.01,2013-10-01 20:37:00,
2013-10-01 16:42:00,84.9,55.8,29.93,WNW,301,0.0,0.0,37,0.00,,,0.01,418.00,VWS V14.01,2013-10-01 20:42:00,
2013-10-01 16:47:00,84.7,57.7,29.93,WNW,301,0.0,0.0,40,0.00,,,0.01,396.00,VWS V14.01,2013-10-01 20:47:00,
2013-10-01 16:52:00,84.7,57.0,29.93,NW,309,0.0,0.0,39,0.00,,,0.01,380.00,VWS V14.01,2013-10-01 20:52:00,
2013-10-01 16:57:00,84.7,57.7,29.93,NW,309,0.0,2.0,40,0.00,,,0.01,79.00,VWS V14.01,2013-10-01 20:57:00,
2013-10-01 17:02:00,84.7,56.3,29.93,NW,309,0.0,0.0,38,0.00,,,0.01,360.00,VWS V14.01,2013-10-01 21:02:00,
2013-10-01 17:07:00,85.1,58.1,29.93,NW,309,0.0,0.0,40,0.00,,,0.01,343.00,VWS V14.01,2013-10-01 21:07:00,
2013-10-01 17:12:00,85.1,57.4,29.93,North,351,0.0,0.0,39,0.00,,,0.01,334.00,VWS V14.01,2013-10-01 21:12:00,
2013-10-01 17:17:00,85.1,56.7,29.93,NNW,334,0.0,0.0,38,0.00,,,0.01,315.00,VWS V14.01,2013-10-01 21:17:00,
2013-10-01 17:22:00,85.1,57.4,29.93,NNW,334,0.0,0.0,39,0.00,,,0.01,306.00,VWS V14.01,2013-10-01 21:22:00,
2013-10-01 17:27:00,84.7,59.8,29.93,NNW,334,0.0,0.0,43,0.00,,,0.01,257.00,VWS V14.01,2013-10-01 21:27:00,
2013-10-01 17:32:00,84.1,60.5,29.94,NNW,334,0.0,0.0,45,0.00,,,0.01,211.00,VWS V14.01,2013-10-01 21:32:00,
2013-10-01 17:37:00,83.4,59.2,29.94,NNW,334,0.0,0.0,44,0.00,,,0.01,105.00,VWS V14.01,2013-10-01 21:37:00,
2013-10-01 17:42:00,83.0,59.5,29.94,NNW,333,1.0,1.0,45,0.00,,,0.01,204.00,VWS V14.01,2013-10-01 21:42:00,
2013-10-01 17:47:00,82.6,57.9,29.94,WSW,252,0.0,0.0,43,0.00,,,0.01,72.00,VWS V14.01,2013-10-01 21:47:00,
2013-10-01 17:52:00,82.2,59.4,29.94,WSW,252,0.0,0.0,46,0.00,,,0.01,70.00,VWS V14.01,2013-10-01 21:52:00,
2013-10-01 17:57:00,81.6,61.2,29.94,WSW,256,0.0,0.0,50,0.00,,,0.01,54.00,VWS V14.01,2013-10-01 21:57:00,
2013-10-01 18:02:00,80.9,61.1,29.94,WSW,256,0.0,0.0,51,0.00,,,0.01,53.00,VWS V14.01,2013-10-01 22:02:00,
2013-10-01 18:07:00,80.1,62.0,29.94,WSW,256,0.0,0.0,54,0.00,,,0.01,53.00,VWS V14.01,2013-10-01 22:07:00,
2013-10-01 18:12:00,79.2,61.7,29.94,WSW,256,0.0,0.0,55,0.00,,,0.01,46.00,VWS V14.01,2013-10-01 22:12:00,
2013-10-01 18:17:00,78.6,62.1,29.94,WSW,256,0.0,0.0,57,0.00,,,0.01,40.00,VWS V14.01,2013-10-01 22:17:00,
2013-10-01 18:22:00,77.9,62.4,29.94,WSW,256,0.0,0.0,59,0.00,,,0.01,35.00,VWS V14.01,2013-10-01 22:22:00,
2013-10-01 18:27:00,77.4,62.9,29.94,WSW,256,0.0,0.0,61,0.00,,,0.01,33.00,VWS V14.01,2013-10-01 22:27:00,
2013-10-01 18:32:00,76.8,63.3,29.94,WSW,256,0.0,0.0,63,0.00,,,0.01,28.00,VWS V14.01,2013-10-01 22:32:00,
2013-10-01 18:37:00,76.5,63.4,29.94,WSW,256,0.0,0.0,64,0.00,,,0.01,23.00,VWS V14.01,2013-10-01 22:37:00,
2013-10-01 18:42:00,76.0,63.4,29.94,NW,316,0.0,0.0,65,0.00,,,0.01,14.00,VWS V14.01,2013-10-01 22:42:00,
2013-10-01 18:47:00,75.4,62.8,29.95,NW,316,0.0,0.0,65,0.00,,,0.01,11.00,VWS V14.01,2013-10-01 22:47:00,
2013-10-01 18:52:00,74.9,63.2,29.95,NW,316,0.0,0.0,67,0.00,,,0.01,7.00,VWS V14.01,2013-10-01 22:52:00,
2013-10-01 18:57:00,74.4,63.2,29.95,NW,316,0.0,0.0,68,0.00,,,0.01,0.00,VWS V14.01,2013-10-01 22:57:00,
2013-10-01 19:02:00,73.7,63.3,29.96,NW,316,0.0,0.0,70,0.00,,,0.01,0.00,VWS V14.01,2013-10-01 23:02:00,
2013-10-01 19:07:00,73.2,62.8,29.96,NW,316,0.0,0.0,70,0.00,,,0.01,0.00,VWS V14.01,2013-10-01 23:07:00,
2013-10-01 19:12:00,72.7,63.2,29.96,NW,316,0.0,0.0,72,0.00,,,0.01,0.00,VWS V14.01,2013-10-01 23:12:00,
2013-10-01 19:17:00,72.1,62.6,29.96,NW,316,0.0,0.0,72,0.00,,,0.01,0.00,VWS V14.01,2013-10-01 23:17:00,
2013-10-01 19:20:00,72.0,63.3,29.96,NW,316,0.0,0.0,74,0.00,,,0.01,0.00,VWS V14.01,2013-10-01 23:20:00,
2013-10-01 19:25:00,71.5,63.2,29.96,NW,316,0.0,0.0,75,0.00,,,0.01,0.00,VWS V14.01,2013-10-01 23:25:00,
2013-10-01 19:30:00,71.1,63.2,29.96,NW,316,0.0,0.0,76,0.00,,,0.01,0.00,VWS V14.01,2013-10-01 23:30:00,
2013-10-01 19:35:00,70.6,62.7,29.96,NW,316,0.0,0.0,76,0.00,,,0.01,0.00,VWS V14.01,2013-10-01 23:35:00,
2013-10-01 19:40:00,70.3,62.8,29.96,NW,316,0.0,0.0,77,0.00,,,0.01,0.00,VWS V14.01,2013-10-01 23:40:00,
2013-10-01 19:45:00,69.8,62.6,29.96,NW,316,0.0,0.0,78,0.00,,,0.01,0.00,VWS V14.01,2013-10-01 23:45:00,
2013-10-01 19:50:00,69.4,62.2,29.96,NW,316,0.0,0.0,78,0.00,,,0.01,0.00,VWS V14.01,2013-10-01 23:50:00,
2013-10-01 19:55:00,69.1,62.3,29.96,NW,316,0.0,0.0,79,0.00,,,0.01,0.00,VWS V14.01,2013-10-01 23:55:00,
2013-10-01 20:00:00,68.9,62.8,29.96,NW,316,0.0,0.0,81,0.00,,,0.01,0.00,VWS V14.01,2013-10-02 00:00:00,
2013-10-01 20:05:00,68.6,62.5,29.97,NW,316,0.0,0.0,81,0.00,,,0.01,0.00,VWS V14.01,2013-10-02 00:05:00,
2013-10-01 20:10:00,68.3,62.6,29.97,NW,316,0.0,0.0,82,0.00,,,0.01,0.00,VWS V14.01,2013-10-02 00:10:00,
2013-10-01 20:15:00,67.9,62.2,29.97,NW,316,0.0,0.0,82,0.00,,,0.01,0.00,VWS V14.01,2013-10-02 00:15:00,
2013-10-01 20:17:00,67.9,62.2,29.97,NW,316,0.0,0.0,82,0.00,,,0.01,0.00,VWS V14.01,2013-10-02 00:17:00,
2013-10-01 20:22:00,67.6,61.9,29.97,NW,316,0.0,0.0,82,0.00,,,0.01,0.00,VWS V14.01,2013-10-02 00:22:00,
2013-10-01 20:27:00,67.3,62.0,29.97,NW,316,0.0,0.0,83,0.00,,,0.01,0.00,VWS V14.01,2013-10-02 00:27:00,
2013-10-01 20:32:00,67.1,61.8,29.98,NW,316,0.0,0.0,83,0.00,,,0.01,0.00,VWS V14.01,2013-10-02 00:32:00,
2013-10-01 20:37:00,66.9,61.9,29.98,NW,316,0.0,0.0,84,0.00,,,0.01,0.00,VWS V14.01,2013-10-02 00:37:00,
2013-10-01 20:42:00,66.6,61.6,29.98,NW,316,0.0,0.0,84,0.00,,,0.01,0.00,VWS V14.01,2013-10-02 00:42:00,
2013-10-01 20:47:00,66.4,61.8,29.98,NW,316,0.0,0.0,85,0.00,,,0.01,0.00,VWS V14.01,2013-10-02 00:47:00,
2013-10-01 20:51:00,66.1,61.5,29.98,NW,316,0.0,0.0,85,0.00,,,0.01,0.00,VWS V14.01,2013-10-02 00:51:00,
2013-10-01 20:56:00,66.0,61.7,29.98,NW,316,0.0,0.0,86,0.00,,,0.01,0.00,VWS V14.01,2013-10-02 00:56:00,
2013-10-01 21:01:00,65.8,61.5,29.98,NW,316,0.0,0.0,86,0.00,,,0.01,0.00,VWS V14.01,2013-10-02 01:01:00,
2013-10-01 21:07:00,65.6,61.3,29.98,NW,316,0.0,0.0,86,0.00,,,0.01,0.00,VWS V14.01,2013-10-02 01:07:00,
2013-10-01 21:12:00,65.3,61.0,29.98,NW,316,0.0,0.0,86,0.00,,,0.01,0.00,VWS V14.01,2013-10-02 01:12:00,
2013-10-01 21:17:00,65.2,60.9,29.99,NW,316,0.0,0.0,86,0.00,,,0.01,0.00,VWS V14.01,2013-10-02 01:17:00,
2013-10-01 21:22:00,64.8,60.5,29.99,NW,316,0.0,0.0,86,0.00,,,0.01,0.00,VWS V14.01,2013-10-02 01:22:00,
2013-10-01 21:27:00,64.7,60.4,29.99,NW,316,0.0,0.0,86,0.00,,,0.01,0.00,VWS V14.01,2013-10-02 01:27:00,
2013-10-01 21:32:00,64.5,60.5,29.99,NW,316,0.0,0.0,87,0.00,,,0.01,0.00,VWS V14.01,2013-10-02 01:32:00,
2013-10-01 21:37:00,64.3,60.7,29.99,NW,316,0.0,0.0,88,0.00,,,0.01,0.00,VWS V14.01,2013-10-02 01:37:00,
2013-10-01 21:42:00,64.2,60.6,29.99,NW,316,0.0,0.0,88,0.00,,,0.01,0.00,VWS V14.01,2013-10-02 01:42:00,
2013-10-01 21:46:00,64.0,60.4,29.99,NW,316,0.0,0.0,88,0.00,,,0.01,0.00,VWS V14.01,2013-10-02 01:46:00,
2013-10-01 21:51:00,63.9,60.3,29.99,NW,316,0.0,0.0,88,0.00,,,0.01,0.00,VWS V14.01,2013-10-02 01:51:00,
2013-10-01 21:57:00,63.5,59.9,29.99,NW,316,0.0,0.0,88,0.00,,,0.01,0.00,VWS V14.01,2013-10-02 01:57:00,
2013-10-01 22:01:00,63.4,59.8,29.99,NW,316,0.0,0.0,88,0.00,,,0.01,0.00,VWS V14.01,2013-10-02 02:01:00,
2013-10-01 22:06:00,63.2,59.6,29.99,NW,316,0.0,0.0,88,0.00,,,0.01,0.00,VWS V14.01,2013-10-02 02:06:00,
2013-10-01 22:11:00,63.2,59.6,29.99,NW,316,0.0,0.0,88,0.00,,,0.01,0.00,VWS V14.01,2013-10-02 02:11:00,
2013-10-01 22:16:00,63.2,59.9,29.99,NW,316,0.0,0.0,89,0.00,,,0.01,0.00,VWS V14.01,2013-10-02 02:16:00,
2013-10-01 22:21:00,63.2,60.2,29.99,NW,316,0.0,0.0,90,0.00,,,0.01,0.00,VWS V14.01,2013-10-02 02:21:00,
2013-10-01 22:26:00,63.1,60.1,29.99,NW,316,0.0,0.0,90,0.00,,,0.01,0.00,VWS V14.01,2013-10-02 02:26:00,
2013-10-01 22:31:00,63.1,60.4,29.99,NW,316,0.0,0.0,91,0.00,,,0.01,0.00,VWS V14.01,2013-10-02 02:31:00,
2013-10-01 22:36:00,63.1,60.4,29.99,NW,316,0.0,0.0,91,0.00,,,0.01,0.00,VWS V14.01,2013-10-02 02:36:00,
2013-10-01 22:41:00,62.9,60.2,29.99,NW,316,0.0,0.0,91,0.00,,,0.01,0.00,VWS V14.01,2013-10-02 02:41:00,
2013-10-01 22:46:00,62.7,60.0,30.00,NW,316,0.0,0.0,91,0.00,,,0.01,0.00,VWS V14.01,2013-10-02 02:46:00,
2013-10-01 22:51:00,62.4,59.7,30.00,NW,316,0.0,0.0,91,0.00,,,0.01,0.00,VWS V14.01,2013-10-02 02:51:00,
2013-10-01 22:56:00,62.3,59.6,30.00,NW,316,0.0,0.0,91,0.00,,,0.01,0.00,VWS V14.01,2013-10-02 02:56:00,
2013-10-01 23:01:00,62.3,59.6,30.00,NW,316,0.0,0.0,91,0.00,,,0.01,0.00,VWS V14.01,2013-10-02 03:01:00,
2013-10-01 23:06:00,62.1,59.5,30.00,NW,316,0.0,0.0,91,0.00,,,0.01,0.00,VWS V14.01,2013-10-02 03:06:00,
2013-10-01 23:11:00,62.0,59.3,30.00,NW,316,0.0,0.0,91,0.00,,,0.01,0.00,VWS V14.01,2013-10-02 03:11:00,
2013-10-01 23:16:00,61.8,59.2,30.00,NW,316,0.0,0.0,91,0.00,,,0.01,0.00,VWS V14.01,2013-10-02 03:16:00,
2013-10-01 23:21:00,61.6,59.0,30.00,NW,316,0.0,0.0,91,0.00,,,0.01,0.00,VWS V14.01,2013-10-02 03:21:00,
2013-10-01 23:26:00,61.6,59.0,30.00,NW,316,0.0,0.0,91,0.00,,,0.01,0.00,VWS V14.01,2013-10-02 03:26:00,
2013-10-01 23:31:00,61.5,59.2,30.00,NW,316,0.0,0.0,92,0.00,,,0.01,0.00,VWS V14.01,2013-10-02 03:31:00,
2013-10-01 23:36:00,61.3,59.0,30.00,NW,316,0.0,0.0,92,0.00,,,0.01,0.00,VWS V14.01,2013-10-02 03:36:00,
2013-10-01 23:41:00,61.3,59.0,30.00,NW,316,0.0,0.0,92,0.00,,,0.01,0.00,VWS V14.01,2013-10-02 03:41:00,
2013-10-01 23:46:00,61.2,58.9,30.00,NW,316,0.0,0.0,92,0.00,,,0.01,0.00,VWS V14.01,2013-10-02 03:46:00,
2013-10-01 23:51:00,61.2,58.9,30.00,NW,316,0.0,0.0,92,0.00,,,0.01,0.00,VWS V14.01,2013-10-02 03:51:00,
2013-10-01 23:56:00,61.0,58.7,30.00,NW,316,0.0,0.0,92,0.00,,,0.01,0.00,VWS V14.01,2013-10-02 03:56:00,